Time;durP1;ratioP1;P1;durP2;ratioP2;P2;SDS_P1;SDS_P2;PMS_P1;PMS_P2;Temp;Humidity;BMP_temperature;BMP_pressure;BME280_temperature;BME280_humidity;BME280_pressure;Samples;Min_cycle;Max_cycle;Signal;HPM_P1;HPM_P2
2022/08/28 00:02:08;;;;;;;;;;;19.80;99.90;;;;;;5012318;28;20259;-74
2022/08/28 00:04:34;;;;;;;;;;;19.80;99.90;;;;;;5012124;28;19941;-74
2022/08/28 00:07:01;;;;;;;;;;;19.90;99.90;;;;;;5012798;28;19968;-74
2022/08/28 00:09:27;;;;;;;;;;;19.80;99.90;;;;;;5012731;28;19913;-74
2022/08/28 00:11:53;;;;;;;;;;;19.80;99.90;;;;;;5012250;28;19909;-74
2022/08/28 00:14:19;;;;;;;;;;;19.70;99.90;;;;;;5012388;28;20377;-74
2022/08/28 00:16:49;;;;;;;;;;;19.70;99.90;;;;;;5011734;28;20263;-74
2022/08/28 00:19:16;;;;;;;;;;;19.70;99.90;;;;;;5012685;28;20370;-74
2022/08/28 00:21:43;;;;;;;;;;;19.60;99.90;;;;;;5011719;28;19920;-73
2022/08/28 00:24:09;;;;;;;;;;;19.60;99.90;;;;;;5012471;28;19909;-74
2022/08/28 00:29:19;;;;;;;;;;;19.60;99.90;;;;;;5012596;28;19913;-74
2022/08/28 00:31:46;;;;;;;;;;;19.50;99.90;;;;;;5011903;28;20377;-74
2022/08/28 00:34:12;;;;;;;;;;;19.60;99.90;;;;;;5012394;28;19947;-73
2022/08/28 00:36:39;;;;;;;;;;;19.50;99.90;;;;;;5015611;28;19940;-73
2022/08/28 00:39:05;;;;;;;;;;;19.50;99.90;;;;;;5015736;28;19924;-73
2022/08/28 00:41:31;;;;;;;;;;;19.50;99.90;;;;;;5015613;28;19914;-74
2022/08/28 00:44:05;;;;;;;;;;;19.50;99.90;;;;;;5016183;28;19910;-73
2022/08/28 00:46:31;;;;;;;;;;;19.50;99.90;;;;;;5015361;28;19920;-74
2022/08/28 00:48:57;;;;;;;;;;;19.40;99.90;;;;;;5015992;28;20008;-74
2022/08/28 00:54:08;;;;;;;;;;;19.40;99.90;;;;;;5016228;28;19937;-75
2022/08/28 00:56:36;;;;;;;;;;;19.40;99.90;;;;;;5015409;28;19913;-75
2022/08/28 00:59:06;;;;;;;;;;;19.40;99.90;;;;;;5015890;28;19914;-75
2022/08/28 01:01:32;;;;;;;;;;;19.50;99.90;;;;;;5015196;28;19920;-75
2022/08/28 01:03:58;;;;;;;;;;;19.50;99.90;;;;;;5016054;28;20016;-75
2022/08/28 01:06:24;;;;;;;;;;;19.50;99.90;;;;;;5015820;28;19913;-76
2022/08/28 01:08:52;;;;;;;;;;;19.50;99.90;;;;;;5015203;28;20012;-75
2022/08/28 01:11:19;;;;;;;;;;;19.50;99.90;;;;;;5015883;28;19925;-76
2022/08/28 01:13:47;;;;;;;;;;;19.40;99.90;;;;;;5014410;28;19917;-76
2022/08/28 01:16:14;;;;;;;;;;;19.40;99.90;;;;;;5015670;28;19977;-76
2022/08/28 01:18:41;;;;;;;;;;;19.40;99.90;;;;;;5015105;28;19918;-75
2022/08/28 01:21:11;;;;;;;;;;;19.40;99.90;;;;;;5015418;28;19913;-74
2022/08/28 01:23:53;;;;;;;;;;;19.40;99.90;;;;;;5014666;28;19914;-74
2022/08/28 01:26:20;;;;;;;;;;;19.40;99.90;;;;;;5015876;28;19920;-75
2022/08/28 01:28:46;;;;;;;;;;;19.30;99.90;;;;;;5014942;28;19914;-75
2022/08/28 01:31:13;;;;;;;;;;;19.30;99.90;;;;;;5014579;28;19921;-74
2022/08/28 01:33:40;;;;;;;;;;;19.30;99.90;;;;;;5014361;28;19918;-74
2022/08/28 01:36:06;;;;;;;;;;;19.20;99.90;;;;;;5014954;28;19924;-74
2022/08/28 01:38:32;;;;;;;;;;;19.20;99.90;;;;;;5015329;28;19925;-75
2022/08/28 01:40:58;;;;;;;;;;;19.20;99.90;;;;;;5014585;28;19913;-75
2022/08/28 01:43:25;;;;;;;;;;;19.20;99.90;;;;;;5015418;28;19917;-75
2022/08/28 01:45:53;;;;;;;;;;;19.20;99.90;;;;;;5014278;28;19937;-75
2022/08/28 01:48:20;;;;;;;;;;;19.20;99.90;;;;;;5015189;28;19913;-75
2022/08/28 01:50:47;;;;;;;;;;;19.20;99.90;;;;;;5014269;28;19936;-75
2022/08/28 01:53:15;;;;;;;;;;;19.20;99.90;;;;;;5015028;28;19910;-74
2022/08/28 01:55:41;;;;;;;;;;;19.20;99.90;;;;;;5014092;28;19925;-74
2022/08/28 01:58:08;;;;;;;;;;;19.10;99.90;;;;;;5014640;28;19925;-73
2022/08/28 02:00:35;;;;;;;;;;;19.10;99.90;;;;;;5014668;28;19916;-75
2022/08/28 02:03:01;;;;;;;;;;;19.10;99.90;;;;;;5015054;28;19925;-75
2022/08/28 02:05:29;;;;;;;;;;;19.10;99.90;;;;;;5014922;28;20397;-74
2022/08/28 02:07:56;;;;;;;;;;;19.10;99.90;;;;;;5013824;28;20171;-74
2022/08/28 02:10:23;;;;;;;;;;;19.10;99.90;;;;;;5014775;28;19913;-73
2022/08/28 02:12:54;;;;;;;;;;;19.00;99.90;;;;;;5014074;28;19913;-74
2022/08/28 02:15:21;;;;;;;;;;;19.00;99.90;;;;;;5014560;28;19917;-74
2022/08/28 02:17:47;;;;;;;;;;;19.00;99.90;;;;;;5014037;28;19924;-74
2022/08/28 02:20:13;;;;;;;;;;;19.00;99.90;;;;;;5013593;28;19920;-74
2022/08/28 02:22:39;;;;;;;;;;;18.90;99.90;;;;;;5014046;28;19920;-75
2022/08/28 02:25:06;;;;;;;;;;;18.90;99.90;;;;;;5014591;28;19918;-74
2022/08/28 02:27:33;;;;;;;;;;;18.90;99.90;;;;;;5014197;28;19917;-74
2022/08/28 02:29:59;;;;;;;;;;;18.80;99.90;;;;;;5013316;28;20257;-74
2022/08/28 02:32:25;;;;;;;;;;;18.80;99.90;;;;;;5014701;28;19924;-74
2022/08/28 02:34:52;;;;;;;;;;;18.80;99.90;;;;;;4996263;28;19921;-75
2022/08/28 02:37:19;;;;;;;;;;;18.70;99.90;;;;;;5013998;28;19917;-74
2022/08/28 02:39:45;;;;;;;;;;;18.70;99.90;;;;;;5013814;28;19917;-74
2022/08/28 02:42:12;;;;;;;;;;;18.70;99.90;;;;;;5014181;28;19937;-74
2022/08/28 02:44:38;;;;;;;;;;;18.70;99.90;;;;;;5013684;28;19913;-74
2022/08/28 02:47:04;;;;;;;;;;;18.60;99.90;;;;;;4996272;28;19914;-75
2022/08/28 02:49:30;;;;;;;;;;;18.50;99.90;;;;;;5013961;28;19921;-75
2022/08/28 02:51:57;;;;;;;;;;;18.50;99.90;;;;;;5013476;28;20281;-74
2022/08/28 02:54:25;;;;;;;;;;;18.50;99.90;;;;;;5012800;28;20366;-73
2022/08/28 02:56:51;;;;;;;;;;;18.50;99.90;;;;;;5013054;28;20354;-74
2022/08/28 02:59:18;;;;;;;;;;;18.50;99.90;;;;;;5012126;28;19914;-73
2022/08/28 03:01:44;;;;;;;;;;;18.50;99.90;;;;;;5012807;28;19913;-74
2022/08/28 03:04:09;;;;;;;;;;;18.50;99.90;;;;;;5014209;28;20534;-73
2022/08/28 03:06:35;;;;;;;;;;;18.50;99.90;;;;;;5013415;28;19972;-74
2022/08/28 03:09:02;;;;;;;;;;;18.50;99.90;;;;;;5012387;28;19913;-74
2022/08/28 03:11:28;;;;;;;;;;;18.50;99.90;;;;;;5013627;28;19920;-73
2022/08/28 03:13:54;;;;;;;;;;;18.50;99.90;;;;;;5013250;28;19961;-73
2022/08/28 03:16:20;;;;;;;;;;;18.50;99.90;;;;;;5013362;28;19940;-73
2022/08/28 03:18:46;;;;;;;;;;;18.50;99.90;;;;;;5012563;28;20008;-74
2022/08/28 03:21:13;;;;;;;;;;;18.50;99.90;;;;;;5013660;28;19913;-73
2022/08/28 03:23:38;;;;;;;;;;;18.50;99.90;;;;;;5013277;28;19981;-73
2022/08/28 03:26:11;;;;;;;;;;;18.50;99.90;;;;;;5013280;28;19952;-73
2022/08/28 03:28:45;;;;;;;;;;;18.50;99.90;;;;;;5013087;28;19928;-74
2022/08/28 03:31:12;;;;;;;;;;;18.50;99.90;;;;;;5012844;28;19920;-73
2022/08/28 03:33:40;;;;;;;;;;;18.40;99.90;;;;;;5013165;28;19918;-73
2022/08/28 03:36:07;;;;;;;;;;;18.40;99.90;;;;;;5013577;28;19917;-74
2022/08/28 03:38:33;;;;;;;;;;;18.40;99.90;;;;;;5013344;28;19924;-74
2022/08/28 03:41:00;;;;;;;;;;;18.40;99.90;;;;;;5012169;28;19977;-73
2022/08/28 03:43:26;;;;;;;;;;;18.40;99.90;;;;;;5013055;28;20243;-72
2022/08/28 03:45:57;;;;;;;;;;;18.40;99.90;;;;;;5012688;28;20274;-72
2022/08/28 03:48:24;;;;;;;;;;;18.40;99.90;;;;;;5012999;28;19920;-72
2022/08/28 03:50:54;;;;;;;;;;;18.40;99.90;;;;;;5012532;28;20398;-73
2022/08/28 03:53:20;;;;;;;;;;;18.30;99.90;;;;;;5012393;28;19914;-72
2022/08/28 03:55:46;;;;;;;;;;;18.30;99.90;;;;;;5012370;28;19913;-73
2022/08/28 03:58:12;;;;;;;;;;;18.30;99.90;;;;;;4978888;28;19940;-73
2022/08/28 04:00:39;;;;;;;;;;;18.30;99.90;;;;;;5012581;28;19913;-72
2022/08/28 04:03:05;;;;;;;;;;;18.30;99.90;;;;;;5012344;28;19932;-73
2022/08/28 04:05:33;;;;;;;;;;;18.30;99.90;;;;;;5012861;28;19924;-73
2022/08/28 04:08:01;;;;;;;;;;;18.30;99.90;;;;;;5012214;28;19913;-73
2022/08/28 04:10:27;;;;;;;;;;;18.20;99.90;;;;;;5011839;28;19909;-72
2022/08/28 04:12:54;;;;;;;;;;;18.20;99.90;;;;;;5012200;28;19913;-73
2022/08/28 04:15:20;;;;;;;;;;;18.20;99.90;;;;;;5012967;28;19918;-73
2022/08/28 04:17:46;;;;;;;;;;;18.20;99.90;;;;;;5012018;28;19917;-73
2022/08/28 04:20:12;;;;;;;;;;;18.20;99.90;;;;;;5012831;28;19949;-72
2022/08/28 04:22:38;;;;;;;;;;;18.10;99.90;;;;;;5012762;28;19920;-72
2022/08/28 04:25:05;;;;;;;;;;;18.20;99.90;;;;;;5011678;28;19921;-72
2022/08/28 04:27:31;;;;;;;;;;;18.10;99.90;;;;;;4995367;28;19913;-72
2022/08/28 04:29:58;;;;;;;;;;;18.10;99.90;;;;;;5011877;28;19913;-72
2022/08/28 04:32:24;;;;;;;;;;;18.10;99.90;;;;;;5012679;28;20243;-72
2022/08/28 04:34:50;;;;;;;;;;;18.10;99.90;;;;;;5012106;28;19929;-72
2022/08/28 04:37:16;;;;;;;;;;;18.10;99.90;;;;;;5012766;28;20281;-72
2022/08/28 04:39:42;;;;;;;;;;;18.00;99.90;;;;;;5012721;28;19921;-72
2022/08/28 04:42:09;;;;;;;;;;;18.00;99.90;;;;;;5011734;28;20374;-72
2022/08/28 04:44:35;;;;;;;;;;;18.10;99.90;;;;;;5012736;28;19918;-72
2022/08/28 04:47:01;;;;;;;;;;;18.00;99.90;;;;;;5011667;28;19910;-72
2022/08/28 04:49:26;;;;;;;;;;;18.00;99.90;;;;;;5011750;28;20278;-72
2022/08/28 04:51:53;;;;;;;;;;;18.00;99.90;;;;;;5012089;28;19967;-72
2022/08/28 04:54:19;;;;;;;;;;;18.00;99.90;;;;;;5012255;28;19913;-72
2022/08/28 04:56:45;;;;;;;;;;;18.10;99.90;;;;;;5011776;28;19936;-75
2022/08/28 04:59:11;;;;;;;;;;;18.10;99.90;;;;;;5012538;28;19913;-72
2022/08/28 05:01:39;;;;;;;;;;;18.00;99.90;;;;;;5012221;28;19914;-72
2022/08/28 05:04:05;;;;;;;;;;;18.10;99.90;;;;;;5011531;28;20297;-72
2022/08/28 05:06:32;;;;;;;;;;;18.10;99.90;;;;;;5012186;28;19960;-72
2022/08/28 05:08:59;;;;;;;;;;;18.10;99.90;;;;;;5011436;28;19939;-73
2022/08/28 05:11:26;;;;;;;;;;;18.10;99.90;;;;;;5012354;28;20301;-72
2022/08/28 05:13:52;;;;;;;;;;;18.10;99.90;;;;;;5011374;28;19921;-73
2022/08/28 05:16:19;;;;;;;;;;;18.10;99.90;;;;;;5011980;28;20355;-72
2022/08/28 05:18:46;;;;;;;;;;;18.00;99.90;;;;;;5011929;28;20292;-72
2022/08/28 05:21:13;;;;;;;;;;;18.10;99.90;;;;;;5013643;28;19913;-73
2022/08/28 05:23:40;;;;;;;;;;;18.00;99.90;;;;;;5015939;28;19921;-73
2022/08/28 05:26:09;;;;;;;;;;;18.10;99.90;;;;;;5014996;28;19921;-72
2022/08/28 05:28:35;;;;;;;;;;;18.10;99.90;;;;;;5015626;28;19917;-72
2022/08/28 05:31:12;;;;;;;;;;;18.10;99.90;;;;;;5014598;28;20380;-73
2022/08/28 05:33:38;;;;;;;;;;;18.20;99.90;;;;;;5015518;28;20358;-72
2022/08/28 05:36:05;;;;;;;;;;;18.20;99.90;;;;;;5014556;28;19924;-72
2022/08/28 05:38:31;;;;;;;;;;;18.20;99.90;;;;;;5015247;28;19913;-73
2022/08/28 05:40:57;;;;;;;;;;;18.20;99.90;;;;;;5014576;28;20278;-73
2022/08/28 05:43:24;;;;;;;;;;;18.20;99.90;;;;;;5015165;28;20012;-72
2022/08/28 05:45:56;;;;;;;;;;;18.20;99.90;;;;;;5014453;28;19921;-72
2022/08/28 05:48:22;;;;;;;;;;;18.30;99.90;;;;;;5015390;28;20358;-72
2022/08/28 05:50:48;;;;;;;;;;;18.30;99.90;;;;;;5019050;28;19913;-75
2022/08/28 05:53:16;;;;;;;;;;;18.40;99.90;;;;;;5028922;28;20390;-72
2022/08/28 05:55:42;;;;;;;;;;;18.40;99.90;;;;;;5024205;28;19924;-72
2022/08/28 06:01:06;;;;;;;;;;;18.50;99.90;;;;;;5004580;28;19913;-72
2022/08/28 06:03:33;;;;;;;;;;;18.60;99.90;;;;;;5022312;28;19932;-71
2022/08/28 06:05:59;;;;;;;;;;;18.70;99.90;;;;;;5014009;28;19913;-72
2022/08/28 06:08:26;;;;;;;;;;;18.70;99.90;;;;;;5014446;28;19917;-72
2022/08/28 06:10:52;;;;;;;;;;;18.80;99.90;;;;;;5018165;28;19920;-73
2022/08/28 06:13:18;;;;;;;;;;;18.90;99.90;;;;;;5033431;28;19917;-72
2022/08/28 06:15:45;;;;;;;;;;;19.00;99.90;;;;;;5033868;28;19917;-72
2022/08/28 06:18:11;;;;;;;;;;;19.10;99.90;;;;;;5033494;28;19921;-73
2022/08/28 06:20:40;;;;;;;;;;;19.10;99.90;;;;;;5033995;28;19935;-72
2022/08/28 06:23:07;;;;;;;;;;;19.10;99.90;;;;;;5033559;28;19913;-73
2022/08/28 06:25:40;;;;;;;;;;;19.20;99.90;;;;;;5033859;28;20270;-73
2022/08/28 06:28:06;;;;;;;;;;;19.20;99.90;;;;;;5018764;28;20389;-73
2022/08/28 06:30:36;;;;;;;;;;;19.40;99.90;;;;;;5014100;28;20362;-73
2022/08/28 06:33:02;;;;;;;;;;;19.60;99.90;;;;;;5012497;28;19920;-73
2022/08/28 06:35:30;;;;;;;;;;;19.70;99.90;;;;;;5013709;28;19928;-76
2022/08/28 06:37:56;;;;;;;;;;;19.80;99.90;;;;;;5013350;28;19924;-74
2022/08/28 06:40:22;;;;;;;;;;;19.90;99.90;;;;;;5013863;28;20278;-73
2022/08/28 06:42:48;;;;;;;;;;;19.90;99.90;;;;;;5013706;28;19920;-73
2022/08/28 06:45:14;;;;;;;;;;;20.00;99.90;;;;;;5013128;28;20011;-73
2022/08/28 06:47:40;;;;;;;;;;;20.10;99.90;;;;;;5013729;28;19913;-75
2022/08/28 06:50:06;;;;;;;;;;;20.10;99.90;;;;;;5003336;28;19952;-73
2022/08/28 06:52:32;;;;;;;;;;;20.00;99.90;;;;;;5012857;28;20286;-73
2022/08/28 06:54:58;;;;;;;;;;;19.90;99.90;;;;;;5012600;28;19948;-74
2022/08/28 06:57:25;;;;;;;;;;;19.80;99.90;;;;;;5030268;28;20409;-73
2022/08/28 06:59:54;;;;;;;;;;;19.80;99.90;;;;;;5033219;28;19913;-74
2022/08/28 07:02:20;;;;;;;;;;;20.00;99.90;;;;;;5032732;28;19913;-74
2022/08/28 07:04:50;;;;;;;;;;;20.10;99.90;;;;;;5033128;28;20364;-73
2022/08/28 07:07:16;;;;;;;;;;;20.00;99.90;;;;;;5027115;28;20305;-73
2022/08/28 07:09:42;;;;;;;;;;;20.20;99.90;;;;;;5032801;28;19913;-73
2022/08/28 07:12:08;;;;;;;;;;;20.10;99.90;;;;;;5032631;28;19913;-74
2022/08/28 07:14:36;;;;;;;;;;;20.00;99.90;;;;;;5033239;28;19917;-72
2022/08/28 07:17:02;;;;;;;;;;;19.90;99.90;;;;;;5032617;28;20301;-72
2022/08/28 07:19:28;;;;;;;;;;;19.90;99.90;;;;;;5032413;28;19913;-73
2022/08/28 07:21:56;;;;;;;;;;;20.10;99.90;;;;;;5031713;28;20277;-74
2022/08/28 07:24:22;;;;;;;;;;;20.00;99.90;;;;;;5032701;28;19913;-74
2022/08/28 07:26:48;;;;;;;;;;;20.10;99.90;;;;;;5032892;28;19920;-73
2022/08/28 07:29:15;;;;;;;;;;;20.10;99.90;;;;;;5032420;28;20294;-73
2022/08/28 07:31:42;;;;;;;;;;;20.20;99.90;;;;;;5033154;28;19920;-73
2022/08/28 07:34:10;;;;;;;;;;;20.30;99.50;;;;;;5031910;28;20362;-72
2022/08/28 07:36:36;;;;;;;;;;;20.40;99.40;;;;;;5032835;28;20278;-74
2022/08/28 07:39:04;;;;;;;;;;;20.60;98.70;;;;;;5032019;28;19924;-73
2022/08/28 07:41:31;;;;;;;;;;;20.50;98.90;;;;;;5032661;28;19913;-73
2022/08/28 07:46:42;;;;;;;;;;;20.40;98.90;;;;;;5032854;28;19920;-73
2022/08/28 07:49:08;;;;;;;;;;;20.20;99.10;;;;;;5032286;28;19920;-73
2022/08/28 07:51:34;;;;;;;;;;;20.40;99.50;;;;;;5032538;28;20247;-72
2022/08/28 07:54:02;;;;;;;;;;;20.60;98.80;;;;;;5032086;28;19913;-73
2022/08/28 07:56:29;;;;;;;;;;;20.80;98.00;;;;;;5032522;28;20416;-73
2022/08/28 07:58:58;;;;;;;;;;;20.80;97.40;;;;;;5032387;28;20404;-73
2022/08/28 08:01:25;;;;;;;;;;;21.00;97.40;;;;;;5031990;28;19960;-73
2022/08/28 08:03:51;;;;;;;;;;;21.00;96.70;;;;;;5032788;28;19932;-73
2022/08/28 08:06:17;;;;;;;;;;;21.00;96.80;;;;;;5031738;28;19964;-73
2022/08/28 08:08:45;;;;;;;;;;;21.20;96.40;;;;;;5032281;28;19932;-72
2022/08/28 08:11:17;;;;;;;;;;;21.30;96.30;;;;;;5031615;28;20286;-73
2022/08/28 08:13:44;;;;;;;;;;;21.50;95.70;;;;;;5032447;28;19913;-72
2022/08/28 08:16:11;;;;;;;;;;;21.90;94.40;;;;;;5031917;28;19923;-73
2022/08/28 08:18:38;;;;;;;;;;;22.40;93.20;;;;;;5031813;28;19917;-73
2022/08/28 08:21:05;;;;;;;;;;;22.50;92.40;;;;;;5031041;28;20274;-73
2022/08/28 08:23:33;;;;;;;;;;;23.00;91.70;;;;;;5032311;28;19909;-73
2022/08/28 08:26:00;;;;;;;;;;;23.20;89.80;;;;;;5031649;28;20381;-74
2022/08/28 08:28:27;;;;;;;;;;;23.30;90.20;;;;;;5031406;28;19913;-73
2022/08/28 08:31:07;;;;;;;;;;;23.70;87.80;;;;;;5032057;28;19932;-73
2022/08/28 08:33:34;;;;;;;;;;;23.70;87.00;;;;;;5031969;28;19917;-74
2022/08/28 08:36:00;;;;;;;;;;;23.60;85.10;;;;;;5031740;28;20290;-74
2022/08/28 08:38:29;;;;;;;;;;;23.70;85.90;;;;;;5032546;28;20287;-73
2022/08/28 08:40:56;;;;;;;;;;;23.50;87.30;;;;;;5031984;28;19917;-72
2022/08/28 08:43:23;;;;;;;;;;;23.90;85.50;;;;;;5031595;28;19921;-73
2022/08/28 08:45:50;;;;;;;;;;;24.00;85.40;;;;;;5031899;28;19913;-72
2022/08/28 08:48:22;;;;;;;;;;;24.50;82.80;;;;;;5031632;28;19913;-73
2022/08/28 08:50:48;;;;;;;;;;;24.40;80.80;;;;;;5031843;28;20258;-73
2022/08/28 08:53:33;;;;;;;;;;;24.60;80.90;;;;;;5031459;28;19921;-73
2022/08/28 08:56:01;;;;;;;;;;;24.70;80.40;;;;;;5033175;28;19985;-73
2022/08/28 08:58:27;;;;;;;;;;;24.90;77.60;;;;;;5035711;28;19917;-72
2022/08/28 09:01:00;;;;;;;;;;;24.70;79.20;;;;;;5035896;28;19913;-73
2022/08/28 09:03:31;;;;;;;;;;;24.60;79.40;;;;;;5036541;28;19925;-73
2022/08/28 09:05:59;;;;;;;;;;;24.40;78.40;;;;;;5035543;28;19928;-72
2022/08/28 09:08:45;;;;;;;;;;;23.80;83.40;;;;;;5035696;28;19917;-72
2022/08/28 09:11:30;;;;;;;;;;;23.90;81.30;;;;;;5033763;28;19924;-72
2022/08/28 09:14:01;;;;;;;;;;;23.80;81.00;;;;;;5035679;28;19913;-74
2022/08/28 09:16:30;;;;;;;;;;;23.80;79.90;;;;;;5035474;28;19940;-72
2022/08/28 09:18:57;;;;;;;;;;;23.60;82.10;;;;;;5035729;28;19917;-73
2022/08/28 09:21:24;;;;;;;;;;;23.20;82.70;;;;;;5034858;28;19914;-74
2022/08/28 09:23:53;;;;;;;;;;;23.50;82.60;;;;;;5035566;28;20277;-73
2022/08/28 09:26:23;;;;;;;;;;;23.80;82.30;;;;;;5034885;28;19913;-73
2022/08/28 09:29:01;;;;;;;;;;;23.70;82.00;;;;;;5035430;28;19920;-73
2022/08/28 09:31:37;;;;;;;;;;;23.70;82.60;;;;;;5035155;28;19913;-73
2022/08/28 09:34:22;;;;;;;;;;;23.90;79.70;;;;;;5034528;28;19924;-73
2022/08/28 09:36:49;;;;;;;;;;;24.10;77.90;;;;;;5034845;28;20365;-72
2022/08/28 09:39:23;;;;;;;;;;;24.40;78.20;;;;;;5034247;28;19913;-73
2022/08/28 09:45:06;;;;;;;;;;;25.30;73.80;;;;;;5035340;28;19913;-73
2022/08/28 09:47:33;;;;;;;;;;;25.20;72.40;;;;;;5031120;28;19913;-74
2022/08/28 09:50:14;;;;;;;;;;;25.00;71.80;;;;;;5034608;28;19916;-74
2022/08/28 09:52:40;;;;;;;;;;;25.50;70.50;;;;;;5034546;28;19913;-74
2022/08/28 09:55:09;;;;;;;;;;;25.90;68.60;;;;;;5033917;28;20258;-74
2022/08/28 09:57:35;;;;;;;;;;;25.90;67.30;;;;;;5034437;28;20290;-73
2022/08/28 10:00:02;;;;;;;;;;;25.80;65.60;;;;;;5034742;28;19924;-73
2022/08/28 10:02:58;;;;;;;;;;;25.20;66.60;;;;;;5036979;28;19921;-73
2022/08/28 10:05:36;;;;;;;;;;;24.70;67.20;;;;;;5033802;28;20386;-72
2022/08/28 10:08:05;;;;;;;;;;;25.10;67.90;;;;;;5032945;28;19980;-74
2022/08/28 10:10:40;;;;;;;;;;;25.40;66.00;;;;;;5034443;28;19920;-74
2022/08/28 10:13:15;;;;;;;;;;;25.10;65.30;;;;;;5033632;28;19920;-75
2022/08/28 10:15:48;;;;;;;;;;;24.90;65.10;;;;;;5034165;28;20334;-72
2022/08/28 10:18:23;;;;;;;;;;;24.50;66.40;;;;;;5033454;28;19917;-73
2022/08/28 10:20:55;;;;;;;;;;;24.30;66.90;;;;;;5035511;28;19913;-74
2022/08/28 10:23:21;;;;;;;;;;;24.30;68.10;;;;;;5034272;28;20270;-73
2022/08/28 10:25:58;;;;;;;;;;;24.40;66.00;;;;;;5034049;28;19913;-73
2022/08/28 10:28:24;;;;;;;;;;;24.40;66.20;;;;;;5033172;28;20246;-74
2022/08/28 10:31:10;;;;;;;;;;;24.00;65.70;;;;;;5033852;28;19910;-73
2022/08/28 10:33:36;;;;;;;;;;;24.40;65.50;;;;;;4993337;28;20401;-73
2022/08/28 10:36:31;;;;;;;;;;;24.80;64.40;;;;;;5033587;28;19917;-73
2022/08/28 10:39:23;;;;;;;;;;;24.70;64.00;;;;;;5016820;28;19917;-72
2022/08/28 10:41:57;;;;;;;;;;;24.60;66.10;;;;;;5029950;28;19920;-73
2022/08/28 10:44:46;;;;;;;;;;;24.70;67.60;;;;;;5033344;28;20292;-73
2022/08/28 10:47:13;;;;;;;;;;;25.20;65.90;;;;;;5007079;28;19913;-73
2022/08/28 10:49:40;;;;;;;;;;;25.40;65.30;;;;;;5033597;28;19916;-72
2022/08/28 10:52:10;;;;;;;;;;;25.10;65.10;;;;;;5033289;28;19913;-72
2022/08/28 10:54:39;;;;;;;;;;;24.70;66.10;;;;;;5033649;28;19924;-73
2022/08/28 10:57:24;;;;;;;;;;;24.50;66.50;;;;;;5033221;28;19928;-72
2022/08/28 10:59:51;;;;;;;;;;;24.40;66.50;;;;;;5033378;28;19924;-73
2022/08/28 11:02:19;;;;;;;;;;;24.10;68.00;;;;;;5032966;28;19917;-74
2022/08/28 11:04:45;;;;;;;;;;;24.10;68.80;;;;;;5032880;28;19917;-76
2022/08/28 11:07:13;;;;;;;;;;;24.30;68.00;;;;;;5033056;28;19913;-74
2022/08/28 11:09:42;;;;;;;;;;;24.60;67.40;;;;;;5033662;28;19963;-73
2022/08/28 11:12:18;;;;;;;;;;;25.10;65.60;;;;;;5032436;28;19920;-76
2022/08/28 11:14:46;;;;;;;;;;;25.20;64.70;;;;;;5033173;28;19920;-74
2022/08/28 11:17:21;;;;;;;;;;;25.20;64.40;;;;;;5032642;28;20358;-74
2022/08/28 11:20:06;;;;;;;;;;;25.10;64.40;;;;;;5032561;28;19925;-74
2022/08/28 11:22:37;;;;;;;;;;;25.20;65.10;;;;;;5032598;28;19920;-74
2022/08/28 11:25:12;;;;;;;;;;;25.40;63.50;;;;;;5032971;28;20319;-74
2022/08/28 11:27:39;;;;;;;;;;;25.50;63.10;;;;;;5015171;28;19913;-74
2022/08/28 11:30:08;;;;;;;;;;;25.40;62.80;;;;;;5033255;28;19920;-73
2022/08/28 11:32:37;;;;;;;;;;;25.50;63.00;;;;;;5033053;28;19920;-73
2022/08/28 11:35:06;;;;;;;;;;;26.00;61.50;;;;;;5032435;28;19924;-73
2022/08/28 11:37:43;;;;;;;;;;;25.90;61.30;;;;;;5031916;28;19920;-74
2022/08/28 11:40:16;;;;;;;;;;;25.40;62.20;;;;;;5032739;28;19917;-74
2022/08/28 11:42:42;;;;;;;;;;;25.50;62.90;;;;;;5032500;28;19920;-73
2022/08/28 11:45:16;;;;;;;;;;;25.50;61.50;;;;;;5032967;28;19913;-73
2022/08/28 11:47:47;;;;;;;;;;;25.30;62.00;;;;;;5032538;28;20281;-73
2022/08/28 11:50:15;;;;;;;;;;;25.30;62.70;;;;;;5031450;28;19913;-75
2022/08/28 11:52:50;;;;;;;;;;;25.30;61.80;;;;;;5032885;28;19909;-73
2022/08/28 11:55:16;;;;;;;;;;;25.50;61.40;;;;;;5031921;28;19920;-74
2022/08/28 11:57:55;;;;;;;;;;;25.30;61.20;;;;;;5032370;28;19917;-73
2022/08/28 12:00:27;;;;;;;;;;;25.50;62.20;;;;;;5032142;28;20023;-74
2022/08/28 12:03:05;;;;;;;;;;;25.70;61.60;;;;;;5032230;28;19921;-74
2022/08/28 12:05:32;;;;;;;;;;;25.80;60.40;;;;;;5031231;28;19928;-73
2022/08/28 12:07:59;;;;;;;;;;;25.40;60.90;;;;;;5032629;28;19913;-73
2022/08/28 12:10:29;;;;;;;;;;;25.40;61.00;;;;;;5031589;28;19917;-73
2022/08/28 12:12:57;;;;;;;;;;;25.50;60.30;;;;;;5032513;28;19917;-72
2022/08/28 12:15:26;;;;;;;;;;;25.40;60.00;;;;;;5031542;28;19913;-73
2022/08/28 12:17:57;;;;;;;;;;;25.40;60.60;;;;;;5032393;28;20393;-73
2022/08/28 12:20:29;;;;;;;;;;;25.60;60.00;;;;;;5031462;28;19933;-74
2022/08/28 12:22:58;;;;;;;;;;;25.70;59.80;;;;;;5032269;28;20020;-73
2022/08/28 12:25:24;;;;;;;;;;;26.40;58.30;;;;;;5031605;28;20304;-73
2022/08/28 12:27:51;;;;;;;;;;;26.40;57.80;;;;;;5032255;28;19913;-74
2022/08/28 12:30:27;;;;;;;;;;;26.40;58.30;;;;;;5031765;28;19913;-74
2022/08/28 12:33:14;;;;;;;;;;;26.80;57.70;;;;;;5036463;28;19928;-73
2022/08/28 12:35:40;;;;;;;;;;;27.00;57.00;;;;;;5035684;28;19924;-74
2022/08/28 12:38:08;;;;;;;;;;;26.70;57.90;;;;;;5034916;28;19917;-73
2022/08/28 12:40:36;;;;;;;;;;;26.80;56.50;;;;;;5035277;28;19921;-74
2022/08/28 12:43:05;;;;;;;;;;;26.60;57.60;;;;;;5035379;28;20385;-73
2022/08/28 12:45:49;;;;;;;;;;;26.60;57.30;;;;;;5035385;28;19996;-74
2022/08/28 12:48:36;;;;;;;;;;;26.50;56.80;;;;;;5035565;28;19924;-73
2022/08/28 12:51:04;;;;;;;;;;;27.00;56.40;;;;;;5021925;28;19920;-73
2022/08/28 12:53:37;;;;;;;;;;;27.20;55.90;;;;;;5034855;28;19913;-73
2022/08/28 12:56:03;;;;;;;;;;;27.10;55.60;;;;;;5035602;28;19913;-74
2022/08/28 12:58:31;;;;;;;;;;;27.10;55.90;;;;;;5034862;28;19917;-73
2022/08/28 13:00:59;;;;;;;;;;;26.90;55.50;;;;;;5035506;28;20384;-74
2022/08/28 13:03:25;;;;;;;;;;;26.50;55.70;;;;;;5034807;28;19925;-74
2022/08/28 13:05:55;;;;;;;;;;;26.10;57.00;;;;;;5035722;28;19917;-74
2022/08/28 13:08:22;;;;;;;;;;;26.00;57.90;;;;;;5034635;28;19913;-74
2022/08/28 13:10:49;;;;;;;;;;;25.90;57.70;;;;;;5035236;28;19913;-74
2022/08/28 13:13:21;;;;;;;;;;;26.00;57.80;;;;;;5034212;28;19913;-76
2022/08/28 13:15:47;;;;;;;;;;;26.10;57.30;;;;;;5035517;28;19913;-73
2022/08/28 13:18:31;;;;;;;;;;;26.40;57.20;;;;;;5035118;28;19952;-73
2022/08/28 13:21:29;;;;;;;;;;;26.50;56.10;;;;;;5034231;28;19917;-72
2022/08/28 13:23:57;;;;;;;;;;;26.60;56.20;;;;;;4991301;28;19924;-73
2022/08/28 13:26:27;;;;;;;;;;;27.00;55.20;;;;;;5034408;28;19917;-74
2022/08/28 13:28:54;;;;;;;;;;;27.30;55.10;;;;;;5035066;28;20282;-73
2022/08/28 13:31:23;;;;;;;;;;;27.40;54.40;;;;;;5034348;28;19924;-74
2022/08/28 13:34:08;;;;;;;;;;;27.10;54.50;;;;;;5035124;28;19917;-74
2022/08/28 13:36:40;;;;;;;;;;;27.00;54.70;;;;;;5033682;28;19928;-73
2022/08/28 13:39:06;;;;;;;;;;;26.60;55.00;;;;;;5034794;28;19917;-73
2022/08/28 13:41:32;;;;;;;;;;;26.60;55.60;;;;;;5034063;28;19921;-74
2022/08/28 13:43:59;;;;;;;;;;;27.30;54.40;;;;;;5034196;28;19913;-74
2022/08/28 13:46:24;;;;;;;;;;;27.50;53.20;;;;;;5034407;28;19913;-73
2022/08/28 13:48:50;;;;;;;;;;;27.20;53.30;;;;;;5034505;28;20043;-73
2022/08/28 13:51:17;;;;;;;;;;;27.20;53.90;;;;;;5034950;28;19909;-73
2022/08/28 13:53:43;;;;;;;;;;;27.30;54.30;;;;;;5034516;28;19913;-73
2022/08/28 13:56:09;;;;;;;;;;;27.40;53.80;;;;;;5034896;28;19936;-74
2022/08/28 13:58:35;;;;;;;;;;;27.50;53.70;;;;;;5034325;28;19928;-74
2022/08/28 14:01:01;;;;;;;;;;;27.40;53.90;;;;;;5033388;28;19913;-74
2022/08/28 14:03:40;;;;;;;;;;;27.40;54.40;;;;;;5033663;28;20396;-73
2022/08/28 14:06:15;;;;;;;;;;;27.30;54.30;;;;;;5034686;28;19928;-73
2022/08/28 14:08:42;;;;;;;;;;;27.40;53.50;;;;;;5033893;28;20254;-73
2022/08/28 14:11:09;;;;;;;;;;;27.40;53.50;;;;;;5034268;28;19916;-73
2022/08/28 14:13:35;;;;;;;;;;;27.40;52.70;;;;;;5033604;28;20310;-74
2022/08/28 14:16:04;;;;;;;;;;;27.30;53.00;;;;;;5034386;28;20366;-73
2022/08/28 14:18:30;;;;;;;;;;;27.60;52.90;;;;;;5033599;28;19917;-74
2022/08/28 14:20:56;;;;;;;;;;;27.60;52.30;;;;;;5033973;28;20258;-73
2022/08/28 14:23:22;;;;;;;;;;;27.50;52.50;;;;;;5033475;28;19948;-74
2022/08/28 14:25:48;;;;;;;;;;;28.10;51.60;;;;;;5034485;28;20250;-74
2022/08/28 14:28:15;;;;;;;;;;;28.20;51.30;;;;;;5034065;28;19909;-74
2022/08/28 14:30:42;;;;;;;;;;;27.70;51.70;;;;;;5033343;28;19913;-73
2022/08/28 14:33:08;;;;;;;;;;;27.70;51.60;;;;;;5033241;28;19913;-73
2022/08/28 14:35:36;;;;;;;;;;;27.60;51.60;;;;;;5033563;28;20258;-74
2022/08/28 14:38:03;;;;;;;;;;;27.70;51.20;;;;;;5033502;28;20027;-73
2022/08/28 14:40:29;;;;;;;;;;;27.80;51.30;;;;;;5033299;28;19917;-74